Terminal Aerodrome Forecast
Issued by NWS

Home | Current Version | Previous Version | Text Only | Print | Product List | Glossary On
Versions: 1 2 3 4 5 6 7 8 9 10 11 12 13 14 15 16
403
FTAK31 PAJN 280218 AAB
TAFASI
TAF AMD
PASI 280218Z 2802/2824 17010KT P6SM -SHRA SCT004 OVC015
      TEMPO 2802/2806 2SM -SHRA BR OVC004
     FM280700 11006KT P6SM VCSH FEW008 BKN025 BKN045=

USA.gov is the U.S. government's official web portal to all federal, state and local government web resources and services.